createdAt,value
2023-03-27T00:01:11.905Z,1.95
2023-03-27T00:03:40.161Z,1.84
2023-03-27T00:06:12.355Z,1.91
2023-03-27T00:08:39.142Z,2.06
2023-03-27T00:11:07.972Z,2.02
2023-03-27T00:13:36.386Z,1.96
2023-03-27T00:16:16.209Z,1.78
2023-03-27T00:18:42.897Z,1.86
2023-03-27T00:21:09.586Z,1.77
2023-03-27T00:23:37.401Z,1.68
2023-03-27T00:26:04.345Z,1.64
2023-03-27T00:28:31.445Z,1.61
2023-03-27T00:30:59.449Z,1.60
2023-03-27T00:33:27.029Z,1.58
2023-03-27T00:35:53.811Z,1.66
2023-03-27T00:38:21.114Z,1.58
2023-03-27T00:40:49.239Z,1.54
2023-03-27T00:43:22.175Z,1.53
2023-03-27T00:45:52.683Z,1.44
2023-03-27T00:48:20.721Z,1.42
2023-03-27T00:50:49.669Z,1.32
2023-03-27T00:53:20.698Z,1.24
2023-03-27T00:55:50.178Z,1.15
2023-03-27T00:58:28.890Z,1.11
2023-03-27T01:00:57.295Z,1.08
2023-03-27T01:03:31.614Z,1.18
2023-03-27T01:06:01.574Z,1.27
2023-03-27T01:08:33.782Z,1.20
2023-03-27T01:11:11.320Z,1.24
2023-03-27T01:14:04.210Z,1.31
2023-03-27T01:17:01.797Z,1.30
2023-03-27T01:20:22.951Z,1.32
2023-03-27T01:23:08.442Z,1.27
2023-03-27T01:25:45.762Z,1.33
2023-03-27T01:28:27.432Z,1.33
2023-03-27T01:31:32.812Z,1.25
2023-03-27T01:34:14.671Z,1.19
2023-03-27T01:37:06.521Z,1.17
2023-03-27T01:40:07.010Z,1.09
2023-03-27T01:42:37.322Z,1.07
2023-03-27T01:45:24.792Z,1.16
2023-03-27T01:48:04.843Z,1.08
2023-03-27T01:50:44.958Z,1.00
2023-03-27T01:53:24.129Z,1.05
2023-03-27T01:55:58.283Z,1.08
2023-03-27T01:58:33.288Z,1.19
2023-03-27T02:01:01.835Z,1.17
2023-03-27T02:03:42.000Z,1.20
2023-03-27T02:06:23.339Z,1.33
2023-03-27T02:09:11.886Z,1.27
2023-03-27T02:11:44.772Z,1.26
2023-03-27T02:14:17.365Z,1.20
2023-03-27T02:16:47.596Z,1.18
2023-03-27T02:19:22.189Z,1.10
2023-03-27T02:21:49.613Z,1.10
2023-03-27T02:24:19.515Z,1.17
2023-03-27T02:26:50.457Z,1.07
2023-03-27T02:29:20.185Z,1.02
2023-03-27T02:32:17.532Z,1.01
2023-03-27T02:34:57.047Z,0.91
2023-03-27T02:37:35.101Z,0.91
2023-03-27T02:40:10.171Z,0.91
2023-03-27T02:43:13.062Z,0.89
2023-03-27T02:45:57.858Z,0.98
2023-03-27T02:48:33.775Z,0.85
2023-03-27T02:51:06.650Z,0.82
2023-03-27T02:53:42.410Z,0.89
2023-03-27T02:56:11.937Z,0.80
2023-03-27T02:58:57.262Z,0.78
2023-03-27T03:01:30.747Z,0.74
2023-03-27T03:04:01.532Z,0.62
2023-03-27T03:06:31.084Z,0.58
2023-03-27T03:09:03.716Z,0.72
2023-03-27T03:11:31.120Z,0.55
2023-03-27T03:13:58.112Z,0.63
2023-03-27T03:16:25.418Z,0.63
2023-03-27T03:18:52.100Z,0.60
2023-03-27T03:21:18.821Z,0.58
2023-03-27T03:23:58.284Z,0.78
2023-03-27T03:26:27.014Z,0.73
2023-03-27T03:29:00.487Z,0.73
2023-03-27T03:31:28.277Z,0.59
2023-03-27T03:33:55.018Z,0.65
2023-03-27T03:36:21.713Z,0.64
2023-03-27T03:38:48.478Z,0.62
2023-03-27T03:41:15.259Z,0.63
2023-03-27T03:43:41.915Z,0.67
2023-03-27T03:46:08.572Z,0.67
2023-03-27T03:48:35.278Z,0.68
2023-03-27T03:51:01.879Z,0.70
2023-03-27T03:53:28.613Z,0.78
2023-03-27T03:55:56.017Z,0.73
2023-03-27T03:58:34.909Z,0.70
2023-03-27T04:01:02.945Z,0.79
2023-03-27T04:03:32.395Z,0.72
2023-03-27T04:06:05.483Z,0.67
2023-03-27T04:08:32.997Z,0.69
2023-03-27T04:10:59.857Z,0.56
2023-03-27T04:13:26.610Z,0.54
2023-03-27T04:15:54.018Z,0.49
2023-03-27T04:18:20.913Z,0.40
2023-03-27T04:20:50.545Z,0.34
2023-03-27T04:23:21.174Z,0.24
2023-03-27T04:25:47.959Z,0.22
2023-03-27T04:28:16.657Z,0.20
2023-03-27T04:30:44.339Z,0.15
2023-03-27T04:33:20.712Z,0.06
2023-03-27T04:36:06.745Z,0.14
2023-03-27T04:38:38.143Z,0.15
2023-03-27T04:41:06.195Z,0.11
2023-03-27T04:43:36.696Z,0.16
2023-03-27T04:46:07.610Z,0.05
2023-03-27T04:48:35.075Z,0.07
2023-03-27T04:51:01.810Z,0.02
2023-03-27T04:53:30.447Z,-0.06
2023-03-27T04:55:57.324Z,-0.07
2023-03-27T04:58:25.835Z,-0.19
2023-03-27T05:00:56.089Z,-0.19
2023-03-27T05:03:24.078Z,-0.21
2023-03-27T05:05:51.027Z,-0.36
2023-03-27T05:08:18.711Z,-0.35
2023-03-27T05:10:46.712Z,-0.30
2023-03-27T05:13:13.614Z,-0.28
2023-03-27T05:15:40.396Z,-0.25
2023-03-27T05:18:07.485Z,-0.34
2023-03-27T05:20:35.351Z,-0.36
2023-03-27T05:23:02.429Z,-0.28
2023-03-27T05:25:31.011Z,-0.28
2023-03-27T05:27:58.104Z,-0.27
2023-03-27T05:30:26.871Z,-0.26
2023-03-27T05:32:54.122Z,-0.27
2023-03-27T05:35:23.795Z,-0.22
2023-03-27T05:37:52.839Z,-0.08
2023-03-27T05:40:31.488Z,-0.06
2023-03-27T05:42:58.149Z,-0.05
2023-03-27T05:45:24.819Z,0.00
2023-03-27T05:47:59.573Z,0.08
2023-03-27T05:50:29.166Z,0.20
2023-03-27T05:52:57.736Z,0.29
2023-03-27T05:55:27.435Z,0.42
2023-03-27T05:57:54.720Z,0.54
2023-03-27T06:00:27.893Z,0.81
2023-03-27T06:02:57.437Z,1.10
2023-03-27T06:05:26.511Z,1.19
2023-03-27T06:07:53.559Z,1.31
2023-03-27T06:10:20.696Z,1.42
2023-03-27T06:12:50.619Z,1.65
2023-03-27T06:15:17.368Z,2.15
2023-03-27T06:17:46.864Z,2.52
2023-03-27T06:20:15.352Z,2.42
2023-03-27T06:22:51.050Z,2.29
2023-03-27T06:25:20.902Z,2.11
2023-03-27T06:27:49.736Z,2.15
2023-03-27T06:30:19.463Z,1.94
2023-03-27T06:32:57.757Z,2.15
2023-03-27T06:35:26.937Z,3.01
2023-03-27T06:37:55.893Z,3.73
2023-03-27T06:40:24.939Z,3.92
2023-03-27T06:42:57.285Z,4.20
2023-03-27T06:45:26.339Z,3.80
2023-03-27T06:48:17.991Z,4.04
2023-03-27T06:50:47.363Z,3.72
2023-03-27T06:55:47.362Z,3.15
2023-03-27T06:58:14.094Z,3.18
2023-03-27T07:00:41.337Z,3.03
2023-03-27T07:03:10.394Z,3.13
2023-03-27T07:05:39.033Z,3.17
2023-03-27T07:08:18.960Z,3.19
2023-03-27T07:11:00.037Z,3.30
2023-03-27T07:13:34.866Z,3.39
2023-03-27T07:16:01.701Z,3.60
2023-03-27T07:18:28.420Z,3.49
2023-03-27T07:20:55.351Z,3.50
2023-03-27T07:23:22.275Z,3.68
2023-03-27T07:25:50.278Z,3.70
2023-03-27T07:28:18.479Z,3.78
2023-03-27T07:30:45.510Z,3.86
2023-03-27T07:33:13.023Z,3.91
2023-03-27T07:35:48.612Z,4.07
2023-03-27T07:38:16.734Z,4.28
2023-03-27T07:40:45.974Z,4.15
2023-03-27T07:43:13.331Z,4.52
2023-03-27T07:45:41.674Z,4.63
2023-03-27T07:48:17.005Z,4.57
2023-03-27T07:50:45.086Z,4.46
2023-03-27T07:53:33.975Z,4.74
2023-03-27T07:56:01.322Z,4.99
2023-03-27T07:58:28.225Z,5.02
2023-03-27T08:01:02.285Z,5.31
2023-03-27T08:03:30.465Z,5.17
2023-03-27T08:05:59.634Z,5.41
2023-03-27T08:08:27.301Z,5.06
2023-03-27T08:10:55.534Z,5.35
2023-03-27T08:13:22.567Z,5.17
2023-03-27T08:15:49.689Z,5.35
2023-03-27T08:18:16.421Z,5.55
2023-03-27T08:20:43.177Z,5.42
2023-03-27T08:23:09.849Z,5.32
2023-03-27T08:25:36.518Z,5.38
2023-03-27T08:28:03.386Z,5.61
2023-03-27T08:30:30.650Z,5.33
2023-03-27T08:32:58.554Z,5.37
2023-03-27T08:35:25.720Z,5.26
2023-03-27T08:37:53.943Z,5.47
2023-03-27T08:40:26.186Z,5.77
2023-03-27T08:42:57.249Z,5.76
2023-03-27T08:45:31.909Z,5.61
2023-03-27T08:48:07.353Z,5.77
2023-03-27T08:50:48.321Z,6.32
2023-03-27T08:53:41.126Z,5.71
2023-03-27T08:56:14.466Z,5.54
2023-03-27T08:58:42.712Z,5.53
2023-03-27T09:01:19.131Z,6.22
2023-03-27T09:03:57.016Z,6.14
2023-03-27T09:06:25.877Z,5.87
2023-03-27T09:09:11.553Z,5.66
2023-03-27T09:12:11.688Z,5.91
2023-03-27T09:14:52.627Z,6.67
2023-03-27T09:17:38.739Z,6.49
2023-03-27T09:20:17.666Z,6.37
2023-03-27T09:22:50.051Z,6.64
2023-03-27T09:25:28.985Z,6.47
2023-03-27T09:27:56.265Z,6.17
2023-03-27T09:30:30.381Z,5.86
2023-03-27T09:33:01.836Z,5.76
2023-03-27T09:35:29.214Z,5.83
2023-03-27T09:38:02.681Z,5.84
2023-03-27T09:40:45.094Z,5.81
2023-03-27T09:43:20.137Z,5.97
2023-03-27T09:45:53.102Z,5.96
2023-03-27T09:48:40.814Z,5.86
2023-03-27T09:51:44.193Z,5.83
2023-03-27T09:54:14.248Z,5.47
2023-03-27T09:57:00.131Z,5.29
2023-03-27T09:59:26.842Z,5.19
2023-03-27T10:01:57.985Z,4.92
2023-03-27T10:04:26.542Z,3.35
2023-03-27T10:07:06.926Z,2.82
2023-03-27T10:09:39.097Z,2.63
2023-03-27T10:12:06.299Z,2.83
2023-03-27T10:14:43.231Z,2.89
2023-03-27T10:17:22.125Z,3.39
2023-03-27T10:19:53.023Z,4.24
2023-03-27T10:22:31.468Z,4.34
2023-03-27T10:25:00.773Z,4.26
2023-03-27T10:27:36.382Z,4.52
2023-03-27T10:30:23.120Z,4.38
2023-03-27T10:32:49.884Z,4.92
2023-03-27T10:35:45.693Z,5.50
2023-03-27T10:38:17.660Z,5.51
2023-03-27T10:40:49.952Z,5.49
2023-03-27T10:43:39.868Z,5.65
2023-03-27T10:46:15.125Z,5.99
2023-03-27T10:49:06.333Z,5.91
2023-03-27T10:51:50.972Z,6.11
2023-03-27T10:54:37.815Z,6.47
2023-03-27T10:57:11.320Z,6.53
2023-03-27T11:00:13.608Z,6.76
2023-03-27T11:02:49.455Z,7.09
2023-03-27T11:05:26.326Z,6.82
2023-03-27T11:08:02.923Z,6.89
2023-03-27T11:10:44.733Z,6.58
2023-03-27T11:13:23.325Z,6.62
2023-03-27T11:15:55.684Z,6.63
2023-03-27T11:18:54.488Z,7.10
2023-03-27T11:21:50.305Z,7.37
2023-03-27T11:24:32.293Z,7.18
2023-03-27T11:27:06.305Z,7.11
2023-03-27T11:29:39.915Z,6.57
2023-03-27T11:32:19.750Z,6.95
2023-03-27T11:35:06.926Z,8.03
2023-03-27T11:37:39.776Z,7.75
2023-03-27T11:40:20.145Z,7.55
2023-03-27T11:42:47.483Z,7.10
2023-03-27T11:45:18.201Z,7.18
2023-03-27T11:47:47.868Z,6.81
2023-03-27T11:50:26.690Z,6.45
2023-03-27T11:52:53.523Z,6.55
2023-03-27T11:55:33.539Z,6.27
2023-03-27T11:58:19.038Z,5.87
2023-03-27T12:01:09.889Z,5.64
2023-03-27T12:04:01.052Z,5.65
2023-03-27T12:07:12.306Z,5.65
2023-03-27T12:09:58.156Z,5.91
2023-03-27T12:12:38.650Z,5.67
2023-03-27T12:15:14.299Z,5.93
2023-03-27T12:17:54.211Z,6.30
2023-03-27T12:20:53.802Z,6.51
2023-03-27T12:23:37.794Z,6.28
2023-03-27T12:26:15.759Z,6.36
2023-03-27T12:28:45.643Z,6.43
2023-03-27T12:31:27.283Z,6.40
2023-03-27T12:34:26.574Z,6.66
2023-03-27T12:36:53.748Z,6.50
2023-03-27T12:39:25.022Z,6.55
2023-03-27T12:41:52.375Z,6.52
2023-03-27T12:44:27.941Z,6.54
2023-03-27T12:47:29.277Z,6.77
2023-03-27T12:50:01.078Z,7.26
2023-03-27T12:52:28.558Z,6.75
2023-03-27T12:55:13.744Z,6.89
2023-03-27T12:57:46.036Z,7.07
2023-03-27T13:00:21.766Z,7.16
2023-03-27T13:02:58.928Z,6.96
2023-03-27T13:05:31.564Z,6.86
2023-03-27T13:08:24.078Z,6.68
2023-03-27T13:10:57.201Z,6.85
2023-03-27T13:13:45.626Z,6.60
2023-03-27T13:16:34.092Z,6.51
2023-03-27T13:19:51.967Z,6.45
2023-03-27T13:22:18.510Z,6.81
2023-03-27T13:25:22.872Z,6.95
2023-03-27T13:27:58.552Z,7.35
2023-03-27T13:30:46.690Z,7.21
2023-03-27T13:33:31.735Z,7.56
2023-03-27T13:35:58.733Z,7.54
2023-03-27T13:38:53.408Z,7.28
2023-03-27T13:41:45.191Z,7.12
2023-03-27T13:44:22.388Z,6.85
2023-03-27T13:46:57.158Z,6.82
2023-03-27T13:49:45.666Z,6.78
2023-03-27T13:52:35.703Z,6.73
2023-03-27T13:55:28.504Z,6.64
2023-03-27T13:58:13.682Z,6.71
2023-03-27T14:01:02.106Z,6.73
2023-03-27T14:03:48.535Z,6.55
2023-03-27T14:06:39.695Z,6.20
2023-03-27T14:09:32.024Z,6.45
2023-03-27T14:12:16.826Z,6.55
2023-03-27T14:15:02.301Z,6.94
2023-03-27T14:17:52.352Z,6.86
2023-03-27T14:20:26.048Z,6.85
2023-03-27T14:23:04.606Z,6.73
2023-03-27T14:25:38.223Z,6.77
2023-03-27T14:28:09.255Z,6.74
2023-03-27T14:30:47.304Z,7.13
2023-03-27T14:33:19.887Z,7.04
2023-03-27T14:35:54.764Z,7.09
2023-03-27T14:38:25.522Z,6.92
2023-03-27T14:40:58.037Z,7.05
2023-03-27T14:43:27.764Z,7.18
2023-03-27T14:45:59.993Z,6.77
2023-03-27T14:48:37.353Z,6.82
2023-03-27T14:51:13.574Z,6.60
2023-03-27T14:53:45.278Z,6.54
2023-03-27T14:56:28.712Z,6.35
2023-03-27T14:59:02.110Z,6.60
2023-03-27T15:01:31.955Z,6.54
2023-03-27T15:04:03.129Z,6.69
2023-03-27T15:06:36.265Z,6.71
2023-03-27T15:09:11.280Z,6.65
2023-03-27T15:11:40.191Z,6.69
2023-03-27T15:14:16.719Z,6.73
2023-03-27T15:16:49.789Z,7.25
2023-03-27T15:19:23.089Z,7.09
2023-03-27T15:21:59.079Z,6.83
2023-03-27T15:24:46.664Z,6.59
2023-03-27T15:27:20.174Z,6.41
2023-03-27T15:29:58.562Z,6.30
2023-03-27T15:32:42.366Z,6.74
2023-03-27T15:35:15.482Z,6.91
2023-03-27T15:37:42.885Z,6.67
2023-03-27T15:40:26.557Z,6.68
2023-03-27T15:43:04.351Z,6.92
2023-03-27T15:45:38.292Z,6.66
2023-03-27T15:48:26.901Z,6.51
2023-03-27T15:51:06.657Z,6.10
2023-03-27T15:53:39.583Z,6.00
2023-03-27T15:56:13.756Z,5.95
2023-03-27T15:58:51.498Z,6.12
2023-03-27T16:01:22.534Z,5.96
2023-03-27T16:03:51.564Z,5.80
2023-03-27T16:06:32.597Z,5.83
2023-03-27T16:09:00.807Z,5.89
2023-03-27T16:11:43.707Z,5.75
2023-03-27T16:14:40.752Z,5.63
2023-03-27T16:17:19.768Z,5.87
2023-03-27T16:20:09.739Z,6.01
2023-03-27T16:22:37.385Z,5.72
2023-03-27T16:25:13.513Z,5.47
2023-03-27T16:27:45.898Z,5.39
2023-03-27T16:30:26.836Z,5.25
2023-03-27T16:32:53.815Z,5.23
2023-03-27T16:35:20.643Z,5.20
2023-03-27T16:37:47.826Z,5.08
2023-03-27T16:40:15.620Z,5.10
2023-03-27T16:42:42.406Z,4.93
2023-03-27T16:45:09.368Z,4.69
2023-03-27T16:47:36.274Z,4.36
2023-03-27T16:52:32.997Z,4.16
2023-03-27T16:54:59.711Z,3.94
2023-03-27T16:57:26.460Z,3.80
2023-03-27T16:59:53.142Z,3.81
2023-03-27T17:02:22.010Z,3.71
2023-03-27T17:04:48.784Z,3.42
2023-03-27T17:07:15.968Z,2.67
2023-03-27T17:09:42.605Z,2.34
2023-03-27T17:12:11.266Z,2.33
2023-03-27T17:14:37.982Z,2.34
2023-03-27T17:17:04.775Z,2.44
2023-03-27T17:19:31.723Z,2.46
2023-03-27T17:21:58.379Z,2.48
2023-03-27T17:24:25.127Z,2.46
2023-03-27T17:26:51.840Z,2.58
2023-03-27T17:29:18.943Z,2.45
2023-03-27T17:31:46.110Z,2.29
2023-03-27T17:34:13.293Z,2.09
2023-03-27T17:36:45.239Z,2.04
2023-03-27T17:39:16.405Z,2.07
2023-03-27T17:41:43.127Z,2.16
2023-03-27T17:44:11.458Z,2.08
2023-03-27T17:46:38.159Z,2.12
2023-03-27T17:49:05.114Z,2.19
2023-03-27T17:51:31.844Z,2.32
2023-03-27T17:53:58.581Z,2.27
2023-03-27T17:56:25.392Z,2.32
2023-03-27T17:58:52.087Z,2.51
2023-03-27T18:01:23.829Z,2.61
2023-03-27T18:03:51.200Z,2.76
2023-03-27T18:06:18.478Z,2.77
2023-03-27T18:08:46.768Z,2.81
2023-03-27T18:11:15.560Z,2.85
2023-03-27T18:13:42.875Z,2.87
2023-03-27T18:16:10.715Z,2.88
2023-03-27T18:18:39.229Z,2.88
2023-03-27T18:21:06.594Z,2.94
2023-03-27T18:23:34.935Z,3.02
2023-03-27T18:26:06.640Z,2.98
2023-03-27T18:28:34.352Z,2.95
2023-03-27T18:31:03.590Z,3.01
2023-03-27T18:33:30.352Z,2.96
2023-03-27T18:35:58.217Z,3.05
2023-03-27T18:38:27.120Z,3.06
2023-03-27T18:40:56.880Z,3.09
2023-03-27T18:43:24.034Z,3.14
2023-03-27T18:46:04.766Z,3.09
2023-03-27T18:48:31.902Z,3.11
2023-03-27T18:51:01.132Z,3.13
2023-03-27T18:53:28.363Z,3.14
2023-03-27T18:55:55.504Z,3.10
2023-03-27T18:58:27.590Z,3.03
2023-03-27T19:00:57.862Z,3.07
2023-03-27T19:03:26.778Z,3.05
2023-03-27T19:05:53.734Z,3.01
2023-03-27T19:08:22.011Z,3.05
2023-03-27T19:10:49.176Z,3.08
2023-03-27T19:13:16.088Z,3.07
2023-03-27T19:15:42.859Z,3.12
2023-03-27T19:18:09.718Z,3.09
2023-03-27T19:20:36.619Z,3.18
2023-03-27T19:23:04.041Z,3.09
2023-03-27T19:25:34.061Z,3.11
2023-03-27T19:28:01.792Z,3.08
2023-03-27T19:30:29.283Z,3.11
2023-03-27T19:32:58.029Z,3.11
2023-03-27T19:35:26.585Z,3.05
2023-03-27T19:37:54.419Z,3.02
2023-03-27T19:40:21.669Z,3.07
2023-03-27T19:42:48.741Z,3.03
2023-03-27T19:45:15.686Z,3.00
2023-03-27T19:47:43.480Z,2.91
2023-03-27T19:50:14.580Z,2.90
2023-03-27T19:52:42.520Z,2.87
2023-03-27T19:55:09.446Z,2.89
2023-03-27T19:57:36.135Z,2.88
2023-03-27T20:00:03.501Z,2.78
2023-03-27T20:02:30.591Z,2.81
2023-03-27T20:04:59.064Z,2.88
2023-03-27T20:07:26.185Z,2.86
2023-03-27T20:09:52.849Z,2.90
2023-03-27T20:12:19.851Z,2.85
2023-03-27T20:14:58.147Z,2.88
2023-03-27T20:17:33.496Z,2.86
2023-03-27T20:20:00.744Z,2.85
2023-03-27T20:22:29.739Z,2.81
2023-03-27T20:24:56.487Z,2.85
2023-03-27T20:27:23.136Z,2.93
2023-03-27T20:29:49.873Z,2.87
2023-03-27T20:32:16.648Z,2.76
2023-03-27T20:34:46.332Z,2.76
2023-03-27T20:37:13.213Z,2.76
2023-03-27T20:39:47.240Z,2.79
2023-03-27T20:42:15.918Z,2.79
2023-03-27T20:44:44.440Z,2.89
2023-03-27T20:47:12.451Z,2.91
2023-03-27T20:49:42.820Z,2.90
2023-03-27T20:52:13.360Z,2.88
2023-03-27T20:54:40.682Z,2.93
2023-03-27T20:57:07.758Z,3.02
2023-03-27T20:59:34.700Z,3.12
2023-03-27T21:02:01.694Z,3.22
2023-03-27T21:04:31.483Z,3.21
2023-03-27T21:06:58.922Z,2.79
2023-03-27T21:09:27.275Z,2.37
2023-03-27T21:11:55.338Z,1.85
2023-03-27T21:14:22.430Z,1.67
2023-03-27T21:16:49.240Z,1.58
2023-03-27T21:19:17.153Z,1.68
2023-03-27T21:21:43.916Z,1.57
2023-03-27T21:24:11.018Z,1.46
2023-03-27T21:26:37.706Z,1.42
2023-03-27T21:29:04.878Z,1.37
2023-03-27T21:31:31.739Z,1.40
2023-03-27T21:33:58.520Z,1.43
2023-03-27T21:36:27.994Z,1.30
2023-03-27T21:38:56.522Z,1.25
2023-03-27T21:41:23.837Z,1.30
2023-03-27T21:43:50.706Z,1.28
2023-03-27T21:46:17.510Z,1.24
2023-03-27T21:48:49.435Z,1.22
2023-03-27T21:51:16.195Z,1.19
2023-03-27T21:53:42.907Z,1.20
2023-03-27T21:56:09.661Z,1.15
2023-03-27T21:58:36.332Z,1.19
2023-03-27T22:01:03.805Z,1.18
2023-03-27T22:03:30.880Z,1.22
2023-03-27T22:06:11.625Z,1.21
2023-03-27T22:08:40.589Z,1.19
2023-03-27T22:11:07.315Z,1.08
2023-03-27T22:13:38.081Z,1.06
2023-03-27T22:16:13.857Z,1.04
2023-03-27T22:18:41.362Z,0.98
2023-03-27T22:21:25.523Z,0.99
2023-03-27T22:23:53.543Z,1.04
2023-03-27T22:26:22.533Z,1.00
2023-03-27T22:28:49.431Z,0.91
2023-03-27T22:31:16.172Z,0.85
2023-03-27T22:33:42.814Z,0.86
2023-03-27T22:36:11.717Z,0.92
2023-03-27T22:38:38.938Z,0.91
2023-03-27T22:41:07.169Z,0.98
2023-03-27T22:43:34.545Z,0.85
2023-03-27T22:46:11.574Z,0.83
2023-03-27T22:48:38.611Z,0.87
2023-03-27T22:51:06.081Z,0.86
2023-03-27T22:53:33.558Z,0.83
2023-03-27T22:56:01.788Z,0.76
2023-03-27T22:58:29.440Z,0.75
2023-03-27T23:00:56.317Z,0.68
2023-03-27T23:03:25.664Z,0.76
2023-03-27T23:05:53.347Z,0.73
2023-03-27T23:08:23.929Z,0.73
2023-03-27T23:10:55.167Z,0.71
2023-03-27T23:13:22.335Z,0.72
2023-03-27T23:15:51.042Z,0.70
2023-03-27T23:18:23.592Z,0.69
2023-03-27T23:20:55.643Z,0.63
2023-03-27T23:23:22.918Z,0.57
2023-03-27T23:25:50.917Z,0.47
2023-03-27T23:28:17.797Z,0.58
2023-03-27T23:30:56.257Z,0.45
2023-03-27T23:33:25.331Z,0.37
2023-03-27T23:36:02.130Z,0.27
2023-03-27T23:38:29.153Z,0.31
2023-03-27T23:40:57.587Z,0.28
2023-03-27T23:43:25.459Z,0.30
2023-03-27T23:45:52.415Z,0.24
2023-03-27T23:48:19.417Z,0.28
2023-03-27T23:50:46.249Z,0.33
2023-03-27T23:53:12.930Z,0.36
2023-03-27T23:55:40.079Z,0.32
2023-03-27T23:58:06.822Z,0.30
